Time;durP1;ratioP1;P1;durP2;ratioP2;P2;SDS_P1;SDS_P2;PMS_P1;PMS_P2;Temp;Humidity;BMP_temperature;BMP_pressure;BME280_temperature;BME280_humidity;BME280_pressure;Samples;Min_cycle;Max_cycle;Signal;HPM_P1;HPM_P2
2022/01/14 00:01:52;;;;;;;34.10;12.85;;;;;;;-141.29;100.00;58932.97;5071961;28;20333;-75
2022/01/14 00:04:21;;;;;;;28.00;12.10;;;;;;;-141.29;100.00;58932.97;5072045;28;20216;-73
2022/01/14 00:06:50;;;;;;;30.50;13.02;;;;;;;-141.29;100.00;58932.97;5070491;28;20658;-72
2022/01/14 00:09:18;;;;;;;29.13;12.45;;;;;;;-141.29;100.00;58932.97;5072276;28;20200;-75
2022/01/14 00:11:54;;;;;;;31.70;12.35;;;;;;;-141.29;100.00;58932.97;5071939;28;20203;-74
2022/01/14 00:14:37;;;;;;;25.48;11.70;;;;;;;-141.29;100.00;58932.97;5072047;28;20659;-73
2022/01/14 00:17:09;;;;;;;29.02;11.07;;;;;;;-141.29;100.00;58932.97;5071934;28;20250;-74
2022/01/14 00:19:37;;;;;;;35.88;13.68;;;;;;;-141.29;100.00;58932.97;5072483;28;20620;-74
2022/01/14 00:22:13;;;;;;;32.70;13.45;;;;;;;-141.29;100.00;58932.97;5071774;28;20583;-73
2022/01/14 00:33:06;;;;;;;31.98;12.48;;;;;;;-141.29;100.00;58932.97;5072284;28;20233;-75
2022/01/14 00:35:40;;;;;;;31.05;12.80;;;;;;;-141.29;100.00;58932.97;5071561;28;20283;-75
2022/01/14 00:38:10;;;;;;;33.03;12.60;;;;;;;-141.29;100.00;58932.97;5071833;28;20689;-74
2022/01/14 00:40:38;;;;;;;32.25;12.55;;;;;;;-141.29;100.00;58932.97;5071439;28;20291;-74
2022/01/14 00:43:09;;;;;;;22.75;9.93;;;;;;;-141.29;100.00;58932.97;5071446;28;20669;-75
2022/01/14 00:45:37;;;;;;;30.83;13.18;;;;;;;-141.29;100.00;58932.97;5072320;28;20294;-74
2022/01/14 00:48:05;;;;;;;31.67;12.43;;;;;;;-141.29;100.00;58932.97;5071693;28;20630;-76
2022/01/14 00:50:35;;;;;;;28.00;12.02;;;;;;;-141.29;100.00;58932.97;5071333;28;20196;-74
2022/01/14 00:53:03;;;;;;;26.83;10.07;;;;;;;-141.29;100.00;58932.97;5074695;28;20228;-73
2022/01/14 00:55:48;;;;;;;30.60;12.02;;;;;;;-141.29;100.00;58932.97;5074773;28;20232;-73
2022/01/14 01:01:17;;;;;;;28.77;11.25;;;;;;;-141.29;100.00;58932.97;5075111;28;20219;-76
2022/01/14 01:03:44;;;;;;;26.63;12.52;;;;;;;-141.29;100.00;58932.97;5073780;28;20196;-74
2022/01/14 01:06:12;;;;;;;28.35;12.05;;;;;;;-141.29;100.00;58932.97;5081814;28;20227;-73
2022/01/14 01:08:46;;;;;;;33.58;12.48;;;;;;;-141.29;100.00;58932.97;5075157;28;20291;-73
2022/01/14 01:11:25;;;;;;;28.77;11.70;;;;;;;-141.29;100.00;58932.97;5074415;28;20200;-75
2022/01/14 01:14:03;;;;;;;30.80;12.63;;;;;;;-141.29;100.00;58932.97;5075079;28;20201;-74
2022/01/14 01:16:31;;;;;;;27.65;12.07;;;;;;;-141.29;100.00;58932.97;5074832;28;20207;-74
2022/01/14 01:18:59;;;;;;;25.48;11.20;;;;;;;-141.29;100.00;58932.97;5074281;28;20283;-74
2022/01/14 01:21:27;;;;;;;27.23;11.82;;;;;;;-141.29;100.00;58932.97;5075348;28;20254;-76
2022/01/14 01:23:53;;;;;;;31.75;12.73;;;;;;;-141.29;100.00;58932.97;5074877;28;20646;-75
2022/01/14 01:26:30;;;;;;;29.38;12.90;;;;;;;-141.29;100.00;58932.97;5074448;28;20239;-73
2022/01/14 01:29:16;;;;;;;34.15;12.77;;;;;;;-141.29;100.00;58932.97;5074630;28;20296;-73
2022/01/14 01:31:45;;;;;;;30.63;11.75;;;;;;;-141.29;100.00;58932.97;5075012;28;20204;-74
2022/01/14 01:34:21;;;;;;;25.98;11.68;;;;;;;-141.29;100.00;58932.97;5074548;28;20196;-74
2022/01/14 01:36:50;;;;;;;28.85;11.95;;;;;;;-141.29;100.00;58932.97;5074876;28;20261;-74
2022/01/14 01:39:21;;;;;;;27.52;11.50;;;;;;;-141.29;100.00;58932.97;5074486;28;20192;-75
2022/01/14 01:41:53;;;;;;;27.17;12.15;;;;;;;-141.29;100.00;58932.97;5074954;28;20254;-76
2022/01/14 01:44:22;;;;;;;29.92;11.65;;;;;;;-141.29;100.00;58932.97;5074831;28;20201;-74
2022/01/14 01:46:51;;;;;;;31.15;12.65;;;;;;;-141.29;100.00;58932.97;5074005;28;20228;-74
2022/01/14 01:49:21;;;;;;;29.50;12.75;;;;;;;-141.29;100.00;58932.97;5074077;28;20696;-75
2022/01/14 01:51:51;;;;;;;31.27;11.80;;;;;;;-141.29;100.00;58932.97;5074458;28;20236;-75
2022/01/14 01:54:23;;;;;;;27.98;11.85;;;;;;;-141.29;100.00;58932.97;5074606;28;20270;-73
2022/01/14 01:56:51;;;;;;;37.75;13.05;;;;;;;-141.29;100.00;58932.97;5074488;28;20209;-75
2022/01/14 01:59:20;;;;;;;29.67;11.93;;;;;;;-141.29;100.00;58932.97;5074256;28;20197;-74
2022/01/14 02:01:47;;;;;;;27.50;12.80;;;;;;;-141.29;100.00;58932.97;5073981;28;20265;-74
2022/01/14 02:04:14;;;;;;;26.60;11.40;;;;;;;-141.29;100.00;58932.97;5073958;28;20258;-73
2022/01/14 02:06:42;;;;;;;27.63;11.63;;;;;;;-141.29;100.00;58932.97;5074599;28;20220;-76
2022/01/14 02:09:10;;;;;;;26.15;11.23;;;;;;;-141.29;100.00;58932.97;5073664;28;20208;-76
2022/01/14 02:11:38;;;;;;;30.92;11.82;;;;;;;-141.29;100.00;58932.97;5073851;28;20253;-72
2022/01/14 02:14:15;;;;;;;28.20;11.85;;;;;;;-141.29;100.00;58932.97;5073841;28;20265;-75
2022/01/14 02:19:27;;;;;;;25.23;11.95;;;;;;;-141.29;100.00;58932.97;5073744;28;20701;-73
2022/01/14 02:22:12;;;;;;;26.20;10.68;;;;;;;-141.29;100.00;58932.97;5074076;28;20257;-73
2022/01/14 02:25:03;;;;;;;32.38;12.52;;;;;;;-141.29;100.00;58932.97;5074174;28;20621;-75
2022/01/14 02:27:30;;;;;;;26.88;11.90;;;;;;;-141.29;100.00;58932.97;5073455;28;20236;-73
2022/01/14 02:29:57;;;;;;;28.08;11.98;;;;;;;-141.29;100.00;58932.97;5073560;28;20231;-75
2022/01/14 02:32:25;;;;;;;32.05;12.15;;;;;;;-141.29;100.00;58932.97;5073824;28;20224;-75
2022/01/14 02:34:56;;;;;;;31.33;12.70;;;;;;;-141.29;100.00;58932.97;5073471;28;20234;-73
2022/01/14 02:37:25;;;;;;;24.85;10.93;;;;;;;-141.29;100.00;58932.97;5072949;28;20203;-72
2022/01/14 02:39:54;;;;;;;27.20;10.82;;;;;;;-141.29;100.00;58932.97;5073198;28;20196;-74
2022/01/14 02:42:25;;;;;;;30.08;12.35;;;;;;;-141.29;100.00;58932.97;5073354;28;20200;-74
2022/01/14 02:45:00;;;;;;;29.58;12.82;;;;;;;-141.29;100.00;58932.97;5073365;28;20197;-73
2022/01/14 02:47:34;;;;;;;36.85;13.18;;;;;;;-141.29;100.00;58932.97;5073081;28;20293;-74
2022/01/14 02:50:02;;;;;;;25.75;11.50;;;;;;;-141.29;100.00;58932.97;5073218;28;20232;-74
2022/01/14 02:52:54;;;;;;;28.75;11.48;;;;;;;-141.29;100.00;58932.97;5073059;28;20323;-75
2022/01/14 02:55:29;;;;;;;27.48;11.57;;;;;;;-141.29;100.00;58932.97;5073287;28;20246;-75
2022/01/14 02:58:02;;;;;;;27.55;11.18;;;;;;;-141.29;100.00;58932.97;5072777;28;20214;-74
2022/01/14 03:00:38;;;;;;;30.92;11.60;;;;;;;-141.29;100.00;58932.97;5073040;28;20211;-74
2022/01/14 03:03:07;;;;;;;24.05;11.27;;;;;;;-141.29;100.00;58932.97;5073101;28;20234;-73
2022/01/14 03:05:34;;;;;;;26.02;10.98;;;;;;;-141.29;100.00;58932.97;5072741;28;20196;-74
2022/01/14 03:08:14;;;;;;;29.50;12.77;;;;;;;-141.29;100.00;58932.97;5072475;28;20289;-73
2022/01/14 03:10:42;;;;;;;30.77;12.07;;;;;;;-141.29;100.00;58932.97;5072587;28;20200;-76
2022/01/14 03:13:11;;;;;;;31.58;11.90;;;;;;;-141.29;100.00;58932.97;5072748;28;20201;-75
2022/01/14 03:15:39;;;;;;;29.42;11.63;;;;;;;-141.29;100.00;58932.97;5079281;28;20196;-73
2022/01/14 03:18:05;;;;;;;28.83;12.25;;;;;;;-141.29;100.00;58932.97;5072648;28;20262;-73
2022/01/14 03:23:19;;;;;;;28.88;11.65;;;;;;;-141.29;100.00;58932.97;5071394;28;20206;-73
2022/01/14 03:25:51;;;;;;;24.02;11.38;;;;;;;-141.29;100.00;58932.97;5072486;28;20199;-73
2022/01/14 03:28:20;;;;;;;31.55;12.25;;;;;;;-141.29;100.00;58932.97;5071458;28;20223;-73
2022/01/14 03:30:51;;;;;;;29.75;12.30;;;;;;;-141.29;100.00;58932.97;5072421;28;20193;-73
2022/01/14 03:33:23;;;;;;;28.98;10.95;;;;;;;-141.29;100.00;58932.97;5072836;28;20207;-76
2022/01/14 03:35:52;;;;;;;27.45;12.30;;;;;;;-141.29;100.00;58932.97;5072266;28;20629;-75
2022/01/14 03:38:24;;;;;;;28.77;12.65;;;;;;;-141.29;100.00;58932.97;5072615;28;20200;-74
2022/01/14 03:40:51;;;;;;;28.42;12.52;;;;;;;-141.29;100.00;58932.97;5072417;28;20667;-72
2022/01/14 03:43:21;;;;;;;25.45;11.88;;;;;;;-141.29;100.00;58932.97;5072269;28;20200;-75
2022/01/14 03:45:50;;;;;;;29.58;12.10;;;;;;;-141.29;100.00;58932.97;5073096;28;20540;-75
2022/01/14 03:48:18;;;;;;;24.20;11.35;;;;;;;-141.29;100.00;58932.97;5072515;28;20323;-74
2022/01/14 03:50:57;;;;;;;26.67;11.40;;;;;;;-141.29;100.00;58932.97;5072714;28;20693;-75
2022/01/14 03:53:25;;;;;;;30.15;11.90;;;;;;;-141.29;100.00;58932.97;5072151;28;20196;-73
2022/01/14 03:55:55;;;;;;;25.17;12.00;;;;;;;-141.29;100.00;58932.97;5071624;28;20215;-74
2022/01/14 03:58:24;;;;;;;24.05;10.88;;;;;;;-141.29;100.00;58932.97;5071751;28;20748;-74
2022/01/14 04:00:59;;;;;;;27.83;11.32;;;;;;;-141.29;100.00;58932.97;5072101;28;20262;-73
2022/01/14 04:03:26;;;;;;;32.58;12.85;;;;;;;-141.29;100.00;58932.97;5073061;28;20279;-72
2022/01/14 04:05:54;;;;;;;32.13;11.98;;;;;;;-141.29;100.00;58932.97;5073361;28;20200;-75
2022/01/14 04:08:21;;;;;;;27.20;12.70;;;;;;;-141.29;100.00;58932.97;5071935;28;20281;-72
2022/01/14 04:10:51;;;;;;;28.75;11.75;;;;;;;-141.29;100.00;58932.97;5072243;28;20197;-75
2022/01/14 04:13:22;;;;;;;26.38;10.35;;;;;;;-141.29;100.00;58932.97;5071738;28;20196;-73
2022/01/14 04:15:48;;;;;;;27.73;11.07;;;;;;;-141.29;100.00;58932.97;5072127;28;20200;-73
2022/01/14 04:18:18;;;;;;;25.13;12.07;;;;;;;-141.29;100.00;58932.97;5072023;28;20211;-74
2022/01/14 04:20:47;;;;;;;31.63;11.52;;;;;;;-141.29;100.00;58932.97;5071528;28;20593;-74
2022/01/14 04:23:21;;;;;;;22.95;10.52;;;;;;;-141.29;100.00;58932.97;5071710;28;20284;-76
2022/01/14 04:28:41;;;;;;;25.67;10.43;;;;;;;-141.29;100.00;58932.97;5075499;28;20236;-75
2022/01/14 04:31:10;;;;;;;23.38;10.07;;;;;;;-141.29;100.00;58932.97;5075830;28;20628;-75
2022/01/14 04:33:40;;;;;;;23.65;10.30;;;;;;;-141.29;100.00;58932.97;5075441;28;20675;-74
2022/01/14 04:36:09;;;;;;;23.60;10.77;;;;;;;-141.29;100.00;58932.97;5075354;28;20217;-73
2022/01/14 04:38:37;;;;;;;28.50;12.02;;;;;;;-141.29;100.00;58932.97;5075617;28;20212;-75
2022/01/14 04:41:09;;;;;;;28.73;11.40;;;;;;;-141.29;100.00;58932.97;5074584;28;20579;-74
2022/01/14 04:43:44;;;;;;;25.38;10.73;;;;;;;-141.29;100.00;58932.97;5075661;28;20207;-76
2022/01/14 04:46:47;;;;;;;28.30;11.98;;;;;;;-141.29;100.00;58932.97;5075586;28;20184;-74
2022/01/14 04:49:16;;;;;;;27.25;12.48;;;;;;;-141.29;100.00;58932.97;5075202;28;20232;-73
2022/01/14 04:51:44;;;;;;;27.60;11.82;;;;;;;-141.29;100.00;58932.97;5075331;28;20274;-74
2022/01/14 04:54:13;;;;;;;29.13;12.27;;;;;;;-141.29;100.00;58932.97;5075418;28;20199;-73
2022/01/14 04:56:44;;;;;;;28.88;11.25;;;;;;;-141.29;100.00;58932.97;5075212;28;20208;-74
2022/01/14 05:01:56;;;;;;;27.48;11.95;;;;;;;-141.29;100.00;58932.97;5075238;28;20203;-74
2022/01/14 05:04:26;;;;;;;29.02;12.95;;;;;;;-141.29;100.00;58932.97;5074592;28;20287;-73
2022/01/14 05:06:59;;;;;;;25.20;11.73;;;;;;;-141.29;100.00;58932.97;5075140;28;20578;-75
2022/01/14 05:09:36;;;;;;;32.85;12.18;;;;;;;-141.29;100.00;58932.97;5075437;28;20277;-75
2022/01/14 05:12:10;;;;;;;33.85;13.07;;;;;;;-141.29;100.00;58932.97;5075389;28;20203;-74
2022/01/14 05:14:38;;;;;;;31.85;12.95;;;;;;;-141.29;100.00;58932.97;5075577;28;20204;-74
2022/01/14 05:17:06;;;;;;;31.08;12.60;;;;;;;-141.29;100.00;58932.97;5074747;28;20554;-75
2022/01/14 05:19:48;;;;;;;28.02;12.65;;;;;;;-141.29;100.00;58932.97;5074684;28;20196;-74
2022/01/14 05:22:17;;;;;;;34.92;14.13;;;;;;;-141.29;100.00;58932.97;5075100;28;20201;-74
2022/01/14 05:24:45;;;;;;;39.13;13.35;;;;;;;-141.29;100.00;58932.97;5079838;28;20196;-73
2022/01/14 05:27:16;;;;;;;36.00;14.43;;;;;;;-141.29;100.00;58932.97;5076708;28;20577;-75
2022/01/14 05:29:44;;;;;;;31.25;12.63;;;;;;;-141.29;100.00;58932.97;5074838;28;20200;-76
2022/01/14 05:32:13;;;;;;;33.47;13.02;;;;;;;-141.29;100.00;58932.97;5074515;28;20262;-75
2022/01/14 05:34:42;;;;;;;34.22;12.80;;;;;;;-141.29;100.00;58932.97;5075019;28;20202;-73
2022/01/14 05:37:10;;;;;;;43.95;15.40;;;;;;;-141.29;100.00;58932.97;5073317;28;20196;-74
2022/01/14 05:39:42;;;;;;;45.72;18.65;;;;;;;-141.29;100.00;58932.97;5074414;28;20687;-73
2022/01/14 05:42:10;;;;;;;40.60;16.45;;;;;;;-141.29;100.00;58932.97;5074165;28;20295;-74
2022/01/14 05:44:41;;;;;;;35.63;16.00;;;;;;;-141.29;100.00;58932.97;5074122;28;20204;-75
2022/01/14 05:47:11;;;;;;;40.50;15.18;;;;;;;-141.29;100.00;58932.97;5074649;28;20283;-73
2022/01/14 05:49:39;;;;;;;45.33;16.80;;;;;;;-141.29;100.00;58932.97;5074140;28;20224;-74
2022/01/14 05:52:07;;;;;;;44.53;15.05;;;;;;;-141.29;100.00;58932.97;5074433;28;20286;-75
2022/01/14 05:54:35;;;;;;;38.40;16.48;;;;;;;-141.29;100.00;58932.97;5073748;28;20200;-75
2022/01/14 05:57:03;;;;;;;45.70;17.02;;;;;;;-141.29;100.00;58932.97;5074374;28;20693;-73
2022/01/14 05:59:31;;;;;;;68.43;26.77;;;;;;;-141.29;100.00;58932.97;5074444;28;20273;-75
2022/01/14 06:02:02;;;;;;;67.22;26.52;;;;;;;-141.29;100.00;58932.97;5074204;28;20204;-73
2022/01/14 06:07:13;;;;;;;52.33;20.58;;;;;;;-141.29;100.00;58932.97;5074155;28;20283;-74
2022/01/14 06:09:41;;;;;;;46.00;18.33;;;;;;;-141.29;100.00;58932.97;5073804;28;20243;-76
2022/01/14 06:14:50;;;;;;;29.70;13.85;;;;;;;-141.29;100.00;58932.97;5074168;28;20226;-73
2022/01/14 06:17:34;;;;;;;33.15;10.93;;;;;;;-141.29;100.00;58932.97;5073890;28;20204;-75
2022/01/14 06:20:23;;;;;;;23.95;10.60;;;;;;;-141.29;100.00;58932.97;5073832;28;20238;-75
2022/01/14 06:22:54;;;;;;;22.88;10.63;;;;;;;-141.29;100.00;58932.97;5073778;28;20683;-74
2022/01/14 06:25:25;;;;;;;23.92;9.65;;;;;;;-141.29;100.00;58932.97;5074958;28;20208;-75
2022/01/14 06:27:53;;;;;;;20.58;10.13;;;;;;;-141.29;100.00;58932.97;5074385;28;20224;-74
2022/01/14 06:30:21;;;;;;;24.53;10.63;;;;;;;-141.29;100.00;58932.97;5073678;28;20196;-75
2022/01/14 06:32:52;;;;;;;26.60;11.13;;;;;;;-141.29;100.00;58932.97;5072573;28;20446;-76
2022/01/14 06:35:20;;;;;;;25.90;10.13;;;;;;;-141.29;100.00;58932.97;5073735;28;20453;-76
2022/01/14 06:37:46;;;;;;;28.00;10.80;;;;;;;-141.29;100.00;58932.97;5073416;28;20887;-74
2022/01/14 06:40:14;;;;;;;27.25;10.73;;;;;;;-141.29;100.00;58932.97;5073300;28;20572;-73
2022/01/14 06:42:41;;;;;;;21.97;10.47;;;;;;;-141.29;100.00;58932.97;5073157;28;20196;-73
2022/01/14 06:45:13;;;;;;;27.08;10.93;;;;;;;-141.29;100.00;58932.97;5073130;28;20953;-73
2022/01/14 06:47:40;;;;;;;25.73;12.30;;;;;;;-141.29;100.00;58932.97;5072283;28;20197;-74
2022/01/14 06:50:12;;;;;;;30.63;12.63;;;;;;;-141.29;100.00;58932.97;5072133;28;20216;-74
2022/01/14 06:52:39;;;;;;;27.48;11.90;;;;;;;-141.29;100.00;58932.97;5071777;28;20236;-76
2022/01/14 06:55:19;;;;;;;28.88;12.43;;;;;;;-141.29;100.00;58932.97;5073148;28;20196;-74
2022/01/14 06:57:47;;;;;;;24.63;11.30;;;;;;;-141.29;100.00;58932.97;5072892;28;20227;-74
2022/01/14 07:00:19;;;;;;;26.80;11.73;;;;;;;-141.29;100.00;58932.97;5073155;28;20196;-76
2022/01/14 07:02:50;;;;;;;26.90;12.20;;;;;;;-141.29;100.00;58932.97;5072628;28;20503;-75
2022/01/14 07:05:24;;;;;;;28.47;12.17;;;;;;;-141.29;100.00;58932.97;5072925;28;20442;-74
2022/01/14 07:07:51;;;;;;;27.30;11.95;;;;;;;-141.29;100.00;58932.97;5073770;28;20492;-75
2022/01/14 07:10:19;;;;;;;40.23;13.57;;;;;;;-141.29;100.00;58932.97;5072907;28;20196;-76
2022/01/14 07:12:47;;;;;;;34.28;13.35;;;;;;;-141.29;100.00;58932.97;5073524;28;20503;-76
2022/01/14 07:15:17;;;;;;;33.63;13.60;;;;;;;-141.29;100.00;58932.97;5072825;28;20193;-74
2022/01/14 07:17:47;;;;;;;30.43;12.20;;;;;;;-141.29;100.00;58932.97;5072739;28;20426;-74
2022/01/14 07:20:18;;;;;;;34.03;13.77;;;;;;;-141.29;100.00;58932.97;5072340;28;20931;-76
2022/01/14 07:22:47;;;;;;;34.70;13.10;;;;;;;-141.29;100.00;58932.97;5072676;28;20443;-72
2022/01/14 07:25:19;;;;;;;32.73;12.10;;;;;;;-141.29;100.00;58932.97;5072852;28;20446;-73
2022/01/14 07:27:49;;;;;;;31.90;11.83;;;;;;;-141.29;100.00;58932.97;5072104;28;20459;-73
2022/01/14 07:30:17;;;;;;;26.47;11.43;;;;;;;-141.29;100.00;58932.97;5077808;28;20450;-74
2022/01/14 07:32:46;;;;;;;24.00;12.07;;;;;;;-141.29;100.00;58932.97;5074002;28;20516;-72
2022/01/14 07:35:14;;;;;;;41.20;15.87;;;;;;;-141.29;100.00;58932.97;5072926;28;20466;-73
2022/01/14 07:37:42;;;;;;;40.77;17.60;;;;;;;-141.29;100.00;58932.97;5072785;28;20430;-73
2022/01/14 07:40:12;;;;;;;46.27;19.17;;;;;;;-141.29;100.00;58932.97;5072147;28;20450;-73
2022/01/14 07:42:39;;;;;;;35.23;15.00;;;;;;;-141.29;100.00;58932.97;5072245;28;20949;-73
2022/01/14 07:45:07;;;;;;;40.17;15.40;;;;;;;-141.29;100.00;58932.97;5071930;28;20511;-73
2022/01/14 07:47:34;;;;;;;43.67;14.43;;;;;;;-141.29;100.00;58932.97;5072360;28;20496;-72
2022/01/14 07:50:02;;;;;;;33.30;13.40;;;;;;;-141.29;100.00;58932.97;5071979;28;20490;-74
2022/01/14 07:52:28;;;;;;;34.83;13.80;;;;;;;-141.29;100.00;58932.97;5071902;28;20478;-74
2022/01/14 07:54:55;;;;;;;27.30;12.90;;;;;;;-141.29;100.00;58932.97;5071811;28;20446;-73
2022/01/14 07:57:24;;;;;;;28.92;13.70;;;;;;;-141.29;100.00;58932.97;5072076;28;20257;-73
2022/01/14 07:59:51;;;;;;;38.83;14.70;;;;;;;-141.29;100.00;58932.97;5072003;28;20253;-74
2022/01/14 08:02:20;;;;;;;35.00;14.67;;;;;;;-141.29;100.00;58932.97;5071832;28;20443;-74
2022/01/14 08:04:49;;;;;;;31.67;13.77;;;;;;;-141.29;100.00;58932.97;5072152;28;20499;-75
2022/01/14 08:07:22;;;;;;;29.23;13.53;;;;;;;-141.29;100.00;58932.97;5071969;28;20426;-75
2022/01/14 08:09:50;;;;;;;26.90;12.30;;;;;;;-141.29;100.00;58932.97;5071553;28;21063;-75
2022/01/14 08:12:17;;;;;;;29.87;13.17;;;;;;;-141.29;100.00;58932.97;5071662;28;20442;-73
2022/01/14 08:14:47;;;;;;;29.33;12.73;;;;;;;-141.29;100.00;58932.97;5071485;28;20438;-74
2022/01/14 08:17:18;;;;;;;26.03;12.00;;;;;;;-141.29;100.00;58932.97;5071819;28;20435;-74
2022/01/14 08:19:45;;;;;;;27.50;12.07;;;;;;;-141.29;100.00;58932.97;5071655;28;20447;-75
2022/01/14 08:22:12;;;;;;;31.37;11.83;;;;;;;-141.29;100.00;58932.97;5071134;28;20454;-75
2022/01/14 08:24:39;;;;;;;24.03;12.10;;;;;;;-141.29;100.00;58932.97;5071423;28;20800;-75
2022/01/14 08:27:07;;;;;;;22.93;12.13;;;;;;;-141.29;100.00;58932.97;5071831;28;20945;-74
2022/01/14 08:29:34;;;;;;;29.27;12.57;;;;;;;-141.29;100.00;58932.97;5071253;28;21056;-74
2022/01/14 08:32:04;;;;;;;26.43;12.03;;;;;;;-141.29;100.00;58932.97;5071591;28;20802;-73
2022/01/14 08:34:31;;;;;;;28.13;12.07;;;;;;;-141.29;100.00;58932.97;5071832;28;20515;-76
2022/01/14 08:37:11;;;;;;;27.23;13.00;;;;;;;-141.29;100.00;58932.97;5071552;28;20950;-75
2022/01/14 08:39:42;;;;;;;29.80;14.07;;;;;;;-141.29;100.00;58932.97;5071489;28;20945;-73
2022/01/14 08:42:15;;;;;;;37.20;13.73;;;;;;;-141.29;100.00;58932.97;5072139;28;20527;-76
2022/01/14 08:44:44;;;;;;;28.83;13.63;;;;;;;-141.29;100.00;58932.97;5073028;28;20504;-74
2022/01/14 08:47:30;;;;;;;28.73;13.77;;;;;;;-141.29;100.00;58932.97;5071346;28;20512;-75
2022/01/14 08:49:59;;;;;;;25.13;12.90;;;;;;;-141.29;100.00;58932.97;5071171;28;20489;-75
2022/01/14 08:52:26;;;;;;;29.33;13.77;;;;;;;-141.29;100.00;58932.97;5071928;28;20572;-76
2022/01/14 08:54:53;;;;;;;29.33;12.47;;;;;;;-141.29;100.00;58932.97;5070827;28;20446;-75
2022/01/14 08:57:22;;;;;;;32.10;13.13;;;;;;;-141.29;100.00;58932.97;5072039;28;20511;-76
2022/01/14 08:59:50;;;;;;;31.13;14.13;;;;;;;-141.29;100.00;58932.97;5071915;28;20458;-75
2022/01/14 09:02:19;;;;;;;26.37;12.73;;;;;;;-141.29;100.00;58932.97;5071347;28;20438;-75
2022/01/14 09:07:40;;;;;;;33.90;14.17;;;;;;;-141.29;100.00;58932.97;5071117;28;21045;-74
2022/01/14 09:10:12;;;;;;;34.80;13.73;;;;;;;-141.29;100.00;58932.97;5071289;28;20899;-75
2022/01/14 09:12:42;;;;;;;33.87;13.27;;;;;;;-141.29;100.00;58932.97;5071945;28;20431;-76
2022/01/14 09:15:20;;;;;;;27.77;12.67;;;;;;;-141.29;100.00;58932.97;5075857;28;20434;-76
2022/01/14 09:17:49;;;;;;;26.37;11.67;;;;;;;-141.29;100.00;58932.97;5074430;28;20445;-76
2022/01/14 09:20:28;;;;;;;29.47;12.67;;;;;;;-141.29;100.00;58932.97;5075511;28;20446;-75
2022/01/14 09:22:57;;;;;;;26.47;12.77;;;;;;;-141.29;100.00;58932.97;5074730;28;20541;-76
2022/01/14 09:25:25;;;;;;;23.93;11.83;;;;;;;-141.29;100.00;58932.97;5073709;28;20454;-74
2022/01/14 09:27:52;;;;;;;30.67;13.33;;;;;;;-141.29;100.00;58932.97;5076003;28;20478;-74
2022/01/14 09:30:22;;;;;;;34.73;12.13;;;;;;;-141.29;100.00;58932.97;5079678;28;20493;-74
2022/01/14 09:32:52;;;;;;;23.37;10.93;;;;;;;-141.29;100.00;58932.97;5075924;28;20500;-75
2022/01/14 09:35:23;;;;;;;22.87;10.30;;;;;;;-141.29;100.00;58932.97;5075036;28;20441;-74
2022/01/14 09:37:55;;;;;;;21.80;9.67;;;;;;;-141.29;100.00;58932.97;5075237;28;20445;-75
2022/01/14 09:40:24;;;;;;;24.30;9.47;;;;;;;-141.29;100.00;58932.97;5074804;28;20494;-75
2022/01/14 09:42:59;;;;;;;20.33;10.33;;;;;;;-141.29;100.00;58932.97;5073784;28;20443;-77
2022/01/14 09:45:28;;;;;;;18.63;8.93;;;;;;;-141.29;100.00;58932.97;5074588;28;20961;-74
2022/01/14 09:47:58;;;;;;;23.57;9.50;;;;;;;-141.29;100.00;58932.97;5074335;28;20964;-73
2022/01/14 09:50:27;;;;;;;24.07;10.83;;;;;;;-141.29;100.00;58932.97;5073750;28;20524;-74
2022/01/14 09:52:55;;;;;;;19.00;9.07;;;;;;;-141.29;100.00;58932.97;5074365;28;20470;-74
2022/01/14 09:55:28;;;;;;;17.97;9.17;;;;;;;-141.29;100.00;58932.97;5074186;28;20516;-75
2022/01/14 09:57:57;;;;;;;22.17;9.77;;;;;;;-141.29;100.00;58932.97;5074210;28;20449;-77
2022/01/14 10:00:26;;;;;;;20.63;8.33;;;;;;;-141.29;100.00;58932.97;5072876;28;20450;-76
2022/01/14 10:02:59;;;;;;;18.00;8.20;;;;;;;-141.29;100.00;58932.97;5073919;28;20447;-75
2022/01/14 10:05:40;;;;;;;16.00;7.93;;;;;;;-141.29;100.00;58932.97;5074094;28;20482;-77
2022/01/14 10:08:11;;;;;;;16.10;8.00;;;;;;;-141.29;100.00;58932.97;5074119;28;20430;-76
2022/01/14 10:10:46;;;;;;;16.07;8.23;;;;;;;-141.29;100.00;58932.97;5072725;28;20878;-74
2022/01/14 10:13:16;;;;;;;22.13;8.87;;;;;;;-141.29;100.00;58932.97;5074134;28;20960;-74
2022/01/14 10:15:47;;;;;;;16.17;8.20;;;;;;;-141.29;100.00;58932.97;5073890;28;20471;-74
2022/01/14 10:18:17;;;;;;;17.73;7.97;;;;;;;-141.29;100.00;58932.97;5073626;28;20507;-75
2022/01/14 10:20:46;;;;;;;18.73;6.33;;;;;;;-141.29;100.00;58932.97;5074293;28;20439;-74
2022/01/14 10:23:15;;;;;;;14.23;7.53;;;;;;;-141.29;100.00;58932.97;5072672;28;20462;-74
2022/01/14 10:25:57;;;;;;;14.47;6.07;;;;;;;-141.29;100.00;58932.97;5074494;28;20995;-75
2022/01/14 10:28:24;;;;;;;14.73;6.27;;;;;;;-141.29;100.00;58932.97;5072768;28;20443;-73
2022/01/14 10:30:52;;;;;;;9.80;5.30;;;;;;;-141.29;100.00;58932.97;5073550;28;20482;-75
2022/01/14 10:33:22;;;;;;;18.50;6.70;;;;;;;-141.29;100.00;58932.97;5074177;28;20435;-78
2022/01/14 10:35:55;;;;;;;10.80;5.93;;;;;;;-141.29;100.00;58932.97;5072392;28;20449;-76
2022/01/14 10:38:26;;;;;;;9.37;5.47;;;;;;;-141.29;100.00;58932.97;5072789;28;20462;-75
2022/01/14 10:41:07;;;;;;;14.50;6.70;;;;;;;-141.29;100.00;58932.97;5073564;28;20442;-76
2022/01/14 10:43:36;;;;;;;12.60;6.07;;;;;;;-141.29;100.00;58932.97;5073945;28;20891;-76
2022/01/14 10:46:08;;;;;;;10.13;5.27;;;;;;;-141.29;100.00;58932.97;5073395;28;20474;-75
2022/01/14 10:48:37;;;;;;;10.47;6.03;;;;;;;-141.29;100.00;58932.97;5073300;28;20457;-74
2022/01/14 10:53:54;;;;;;;12.60;5.37;;;;;;;-141.29;100.00;58932.97;5073354;28;20707;-76
2022/01/14 10:56:25;;;;;;;10.57;5.43;;;;;;;-141.29;100.00;58932.97;5073074;28;20447;-74
2022/01/14 11:01:52;;;;;;;11.23;5.30;;;;;;;-141.29;100.00;58932.97;5073777;28;20517;-74
2022/01/14 11:04:39;;;;;;;14.27;5.50;;;;;;;-141.29;100.00;58932.97;5073885;28;20449;-77
2022/01/14 11:07:35;;;;;;;15.73;5.40;;;;;;;-141.29;100.00;58932.97;5072009;28;20462;-74
2022/01/14 11:10:16;;;;;;;11.77;6.50;;;;;;;-141.29;100.00;58932.97;5072540;28;20517;-75
2022/01/14 11:12:49;;;;;;;10.90;6.37;;;;;;;-141.29;100.00;58932.97;5072499;28;20451;-75
2022/01/14 11:15:24;;;;;;;11.40;6.73;;;;;;;-141.29;100.00;58932.97;5072457;28;20454;-74
2022/01/14 11:17:56;;;;;;;10.10;5.87;;;;;;;-141.29;100.00;58932.97;5073423;28;20449;-77
2022/01/14 11:20:30;;;;;;;14.77;7.37;;;;;;;-141.29;100.00;58932.97;5072283;28;20457;-75
2022/01/14 11:23:16;;;;;;;9.30;4.87;;;;;;;-141.29;100.00;58932.97;5072761;28;20518;-75
2022/01/14 11:25:52;;;;;;;12.63;5.33;;;;;;;-141.29;100.00;58932.97;5073181;28;20458;-75
2022/01/14 11:28:30;;;;;;;10.90;6.17;;;;;;;-141.29;100.00;58932.97;5072296;28;20521;-75
2022/01/14 11:30:59;;;;;;;10.80;5.57;;;;;;;-141.29;100.00;58932.97;5076568;28;20676;-75
2022/01/14 11:33:43;;;;;;;10.83;5.53;;;;;;;-141.29;100.00;58932.97;5072516;28;20531;-75
2022/01/14 11:36:16;;;;;;;9.60;5.50;;;;;;;-141.29;100.00;58932.97;5072918;28;20445;-74
2022/01/14 11:38:49;;;;;;;9.23;5.50;;;;;;;-141.29;100.00;58932.97;5072798;28;20492;-76
2022/01/14 11:41:26;;;;;;;6.57;3.57;;;;;;;-141.29;100.00;58932.97;5072200;28;20519;-73
2022/01/14 11:43:56;;;;;;;9.67;5.80;;;;;;;-141.29;100.00;58932.97;5072335;28;20450;-76
2022/01/14 11:46:47;;;;;;;12.33;6.00;;;;;;;-141.29;100.00;58932.97;5072278;28;20430;-74
2022/01/14 11:49:38;;;;;;;10.37;5.53;;;;;;;-141.29;100.00;58932.97;5072577;28;20998;-76